Mateus Martins

Olheiro-Chefe - Internacional
22 Abr 2027
Quinta-feira
Processo

Personalidade

Adaptabilidade (13) Ambição (18) Controvérsia (1) Lealdade (12) Pressão (12) Profissionalismo (9) Espírito Esportivo (12) Temperamento (1)

Perfil

Estilo de Treinamento Democrático
Licença Continental Pro
Determinação 7
Gestão de Pessoas 10
Motivação 12
Disciplina 12
Satisfação no Trabalho
50%
Fadiga
0%
Função Olheiro-Chefe
Salário 83.4K p/s
Contrato 14.03.2029

Desempenho

Comportamento Normal
Eficácia do Treinamento
26%
Desenvolvimento do Jogador
35%
Prevenção de Lesões
60%
Implementação Tática
40%

Eventos Recentes

Avaliou um jogador agora
Participou de uma reunião de recrutamento agora
Recomendou um alvo de transferência agora
Avaliou um jogador agora
Avaliou um jogador 7d atrás
Avaliou um jogador 7d atrás
Avaliou um jogador 7d atrás
Avaliou um jogador 7d atrás

Monitorando agora

217
Jogador Clube Status Habilidade Confiança Observado Última observação Último voto
Donyell Malen AS Roma Ativo 160 / 157 40% 2 21.04.2027 -
Víctor Gómez Braga Ativo 140 / 147 40% 6 21.04.2027 -
Romelu Castagne KV Oostende Ativo 138 / 127 40% 3 21.04.2027 -
Carlos Vicente Birmingham Ativo 155 / 150 40% 6 21.04.2027 -
Alberto Costa Porto Ativo 135 / 149 40% 5 21.04.2027 -
Gonçalo Ramos AC Milan Ativo 159 / 152 40% 1 21.04.2027 -
Dominic Calvert-Lewin Leeds United Ativo 146 / 146 40% 5 20.04.2027 -
Lautaro Martínez Inter Ativo 168 / 172 40% 1 20.04.2027 -
Nicolas Jackson Aston Villa Ativo 160 / 147 40% 1 20.04.2027 -
Dango Ouattara Brentford Ativo 150 / 139 40% 2 19.04.2027 -
Diego Lainez Tigres Ativo 143 / 137 40% 7 19.04.2027 -
Emile Smith Rowe Fulham Ativo 161 / 142 40% 1 19.04.2027 -
Dani Ceballos AS Roma Ativo 141 / 145 40% 4 17.04.2027 -
Jacob Ramsey Newcastle United Ativo 158 / 157 40% 1 17.04.2027 -
Santi García Gil Vicente Ativo 140 / 140 40% 8 16.04.2027 -
Ander Barrenetxea Real Sociedad Ativo 162 / 142 40% 3 16.04.2027 -
Geny Sporting CP Ativo 143 / 136 40% 2 16.04.2027 -
Iván Fresneda Sporting CP Ativo 140 / 140 40% 7 15.04.2027 -
Chiquinho Alverca Ativo 122 / 121 40% 8 15.04.2027 -
Nuno Santos Sporting CP Ativo 131 / 146 40% 3 14.04.2027 -
Julio Enciso Ipswich Town Ativo 148 / 142 40% 2 14.04.2027 -
Sorba Thomas Stoke City Ativo 128 / 125 40% 2 14.04.2027 -
Tom Fellows Southampton Ativo 134 / 139 40% 5 13.04.2027 -
Francisco Moura Lusitânia Lourosa Ativo 136 / 140 40% 6 12.04.2027 -
Roberto Fernández Braga Ativo 138 / 142 40% 4 12.04.2027 -
Andrea Carboni Monza Ativo 138 / 133 40% 1 12.04.2027 -
Soungoutou Magassa West Ham United Ativo 127 / 130 40% 1 12.04.2027 -
Agustín Palavecino Cruz Azul Ativo 150 / 135 40% 6 10.04.2027 -
Loum Tchaouna Coventry City Ativo 138 / 131 40% 8 10.04.2027 -
João Carvalho Estoril Praia Ativo 123 / 129 40% 2 10.04.2027 -
Ricardo Horta Braga Ativo 156 / 153 40% 10 09.04.2027 -
Nicolás Fernández Mercau Shakhtar Ativo 127 / 125 40% 3 09.04.2027 -
Max Bird Birmingham Ativo 127 / 134 40% 2 09.04.2027 -
Luís Esteves Atlas Ativo 121 / 136 40% 2 09.04.2027 -
Callum Doyle Wrexham Ativo 126 / 135 40% 1 09.04.2027 -
Pepê Porto Ativo 153 / 141 40% 9 07.04.2027 -
Razvan Balasa Crvena Zvezda Ativo 161 / 152 40% 4 07.04.2027 -
Marco Asensio Fenerbahce Ativo 169 / 146 40% 5 07.04.2027 -
Pau Víctor AVS Ativo 142 / 129 40% 10 07.04.2027 -
Luka Jović AEK Ativo 147 / 128 40% 5 07.04.2027 -
Eduardo Quaresma Sporting CP Ativo 148 / 142 40% 2 06.04.2027 -
Welington Southampton Ativo 137 / 129 40% 4 06.04.2027 -
Yoan Bonny Inter Ativo 139 / 153 40% 3 06.04.2027 -
Toni Fruk KV Mechelen Ativo 136 / 142 40% 1 06.04.2027 -
Dávid Strelec Middlesbrough Ativo 132 / 139 40% 1 06.04.2027 -
Aidan Morris Middlesbrough Ativo 133 / 125 40% 1 06.04.2027 -
Abel Bretones Osasuna Ativo 148 / 144 40% 2 05.04.2027 -
Shea Charles Southampton Ativo 134 / 136 40% 1 05.04.2027 -
Jacques Ekomié Wrexham Ativo 136 / 122 40% 1 05.04.2027 -
Dodi Lukébakio Benfica Ativo 154 / 152 40% 5 01.04.2027 -
Paulinho Palmeiras Ativo 144 / 147 40% 16 01.04.2027 -
Musa Barrow Al-Khaleej Ativo 131 / 139 40% 2 01.04.2027 -
Erick Sánchez OGC Nice Ativo 138 / 136 40% 2 01.04.2027 -
Riley McGree Middlesbrough Ativo 127 / 129 40% 1 01.04.2027 -
Amine Gouiri Olympique de Marseille Ativo 136 / 152 40% 2 30.03.2027 -
David Zapata Sheffield Wednesday Ativo 139 / 136 40% 16 29.03.2027 -
Jesús Ricardo Angulo Toluca Ativo 132 / 122 40% 8 29.03.2027 -
Harry Clarke Preston Ativo 118 / 121 40% 1 29.03.2027 -
Renato Sanches AVS Ativo 143 / 123 40% 1 25.03.2027 -
Heorhii Sudakov Benfica Ativo 151 / 144 40% 7 24.03.2027 -
Mario Dorgeles Braga Ativo 122 / 136 40% 8 23.03.2027 -
Ozziel Herrera Tigres Ativo 141 / 134 40% 1 22.03.2027 -
Félix Lemaréchal Club Brugge Ativo 145 / 136 40% 4 21.03.2027 -
Rafik Guitane Estoril Praia Ativo 127 / 130 40% 4 21.03.2027 -
Gianluca Prestianni Benfica Ativo 143 / 141 40% 5 20.03.2027 -
Juan Brunetta Tigres Ativo 132 / 140 40% 4 18.03.2027 -
Jørgen Strand Larsen Crystal Palace Ativo 148 / 150 40% 3 16.03.2027 -
Jens Odgaard Bologna Ativo 135 / 141 40% 1 16.03.2027 -
William Gomes Porto Ativo 139 / 145 40% 7 14.03.2027 -
Sergio Arribas Almería Ativo 128 / 142 40% 2 14.03.2027 -
Anel Ahmedhodžić Burnley Ativo 137 / 130 40% 1 14.03.2027 -
Antonino Gallo Lecce Ativo 135 / 131 40% 1 14.03.2027 -
Tim Iroegbunam Hull City Ativo 141 / 140 40% 1 14.03.2027 -
Hwang In-Beom Porto Ativo 132 / 150 40% 3 11.03.2027 -
Jesús Angulo Tigres Ativo 148 / 139 40% 4 10.03.2027 -
Orbelín Pineda Monterrey Ativo 148 / 133 40% 4 07.03.2027 -
Ivan Toney Al-Ahli Ativo 153 / 148 40% 7 03.03.2027 -
Hamza Igamane LOSC Lille Ativo 132 / 135 40% 1 03.03.2027 -
Georges-Kévin Nkoudou Al-Diriyah Ativo 136 / 133 40% 1 01.03.2027 -
Yoane Wissa Newcastle United Ativo 132 / 138 40% 9 24.02.2027 -
Pedro Flamengo Ativo 147 / 136 40% 10 24.02.2027 -
Jhon Arias Palmeiras Rejeitado 134 / 139 40% 3 22.02.2027 Rejeitar
Carlos Forbs Club Brugge Ativo 140 / 138 40% 4 22.02.2027 -
Yehor Yarmoliuk Brentford Ativo 145 / 145 40% 2 19.02.2027 -
João Félix Olympiacos Ativo 171 / 152 40% 5 17.02.2027 -
Soufiane Rahimi Guadalajara Ativo 125 / 134 40% 2 17.02.2027 -
Brian Rodríguez Club America Ativo 125 / 137 40% 2 13.02.2027 -
Barış Alper Yılmaz Galatasaray Ativo 161 / 138 40% 2 10.02.2027 -
Brian Brobbey Sunderland Ativo 143 / 142 40% 2 10.02.2027 -
Todd Cantwell Blackburn Rovers Ativo 118 / 133 40% 3 10.02.2027 -
Rodrigo Zalazar Sporting CP Ativo 139 / 140 40% 6 06.02.2027 -
José Manuel López Palmeiras Rejeitado 142 / 129 40% 2 04.02.2027 Mais informações
Diego Rossi Monterrey Ativo 124 / 133 40% 2 04.02.2027 -
Tammy Abraham Aston Villa Ativo 140 / 146 40% 3 03.02.2027 -
Fotis Ioannidis Rio Ave Ativo 145 / 137 40% 2 03.02.2027 -
Christian Krasnodar Ativo 134 / 129 40% 1 02.02.2027 -
Nuno Tavares Lazio Ativo 157 / 143 40% 1 02.02.2027 -
Hany Mukhtar Spezia Ativo 141 / 140 40% 1 31.01.2027 -
Adnan Courtois KV Oostende Ativo 138 / 131 40% 1 31.01.2027 -
Tomás Araújo Benfica Ativo 152 / 143 40% 8 29.01.2027 -
Léo Scienza Southampton Rejeitado 135 / 140 40% 2 29.01.2027 Mais informações
Jesús Orozco Chiquete Cruz Azul Ativo 135 / 138 40% 2 29.01.2027 -
Ethan Galbraith Swansea City Ativo 127 / 125 40% 1 29.01.2027 -
Juninho Pumas UNAM Ativo 117 / 130 40% 3 28.01.2027 -
João Palhinha Benfica Ativo 145 / 157 40% 5 26.01.2027 -
Fredrik Aursnes Benfica Rejeitado 143 / 141 40% 2 25.01.2027 Mais informações
Luciano Acosta Fluminense Ativo 136 / 130 40% 1 23.01.2027 -
Julián Quiñones Lokomotiv Moscow Ativo 155 / 152 40% 3 21.01.2027 -
Samuel Lino Flamengo Ativo 140 / 143 40% 2 21.01.2027 -
Gérson Cruzeiro Ativo 150 / 143 40% 2 21.01.2027 -
Marcelo Allende Mamelodi Sundowns Ativo 132 / 132 40% 1 21.01.2027 -
Rashid Rashid Sparta Prague Ativo 138 / 138 40% 1 21.01.2027 -
Alejandro Zendejas Club America Rejeitado 139 / 139 40% 4 18.01.2027 Rejeitar
Ansu Fati Monaco Ativo 128 / 144 40% 2 18.01.2027 -
Theo Bongonda Al-Faisaly Ativo 131 / 125 40% 2 18.01.2027 -
Che Adams Torino Ativo 133 / 135 40% 3 17.01.2027 -
Andreas Pereira Palmeiras Ativo 139 / 140 40% 1 15.01.2027 -
Henry Mosquera Bragantino Ativo 125 / 132 40% 1 12.01.2027 -
Nuno Moreira Vasco da Gama Ativo 140 / 135 40% 3 11.01.2027 -
Taiwo Awoniyi Coventry City Ativo 130 / 138 40% 2 10.01.2027 -
Nicolò Zaniolo Udinese Ativo 142 / 135 40% 1 10.01.2027 -
Rémi Lemoine Chamois Niortais Ativo 146 / 157 40% 5 06.01.2027 -
Nicolás de la Cruz Flamengo Ativo 146 / 132 40% 2 05.01.2027 -
Andrea Pinamonti Lazio Ativo 128 / 139 40% 2 04.01.2027 -
Pedro Porro Tottenham Ativo 136 / 144 40% 3 02.01.2027 -
Vitinho Botafogo Ativo 146 / 139 40% 2 02.01.2027 -
Juan Pablo Freytes Fluminense Ativo 120 / 131 40% 1 02.01.2027 -
Victor Froholdt Porto Ativo 143 / 150 40% 7 31.12.2026 -
Gianluca Scamacca Atalanta Ativo 136 / 149 40% 2 31.12.2026 -
Lucas Piton Vasco da Gama Ativo 132 / 135 40% 2 31.12.2026 -
Nathan Collins Brentford Ativo 143 / 146 40% 1 31.12.2026 -
Joaquín Panichelli Le Havre AC Rejeitado 145 / 132 40% 4 28.12.2026 -
Florentino Luís Ipswich Town Ativo 140 / 133 40% 1 27.12.2026 -
Gonçalo Inácio Sporting CP Ativo 145 / 157 40% 6 24.12.2026 -
Tyrell Malacia Monaco Ativo 148 / 126 40% 1 24.12.2026 -
Bright Arrey-Mbi Braga Ativo 130 / 130 40% 2 23.12.2026 -
Luciano Juba Bahia Ativo 136 / 138 40% 1 23.12.2026 -
Ilay Camara Anderlecht Ativo 126 / 139 40% 1 22.12.2026 -
Mathias De Amorim Famalicao Ativo 117 / 134 40% 1 19.12.2026 -
Gustaf Lagerbielke Braga Ativo 131 / 129 40% 4 18.12.2026 -
Jean-Baptiste Gorby Braga Ativo 140 / 127 40% 1 18.12.2026 -
Dara O'Shea Ipswich Town Ativo 138 / 139 40% 2 17.12.2026 -
Matheus Bidu Corinthians Ativo 125 / 123 40% 2 17.12.2026 -
Dinis Pinto Moreirense Ativo 119 / 132 40% 1 16.12.2026 -
Noah Sadiki Sunderland Ativo 152 / 139 40% 1 16.12.2026 -
Pablo Felipe West Ham United Ativo 121 / 131 40% 1 15.12.2026 -
Lukáš Červ Viktoria Plzen Ativo 126 / 124 40% 1 15.12.2026 -
Emerson Royal Flamengo Ativo 131 / 139 40% 1 14.12.2026 -
Marcos Antonio Sport Recife Ativo 135 / 137 40% 3 11.12.2026 -
Matheuzinho Corinthians Ativo 126 / 125 40% 1 11.12.2026 -
Juanlu Bournemouth Ativo 138 / 140 40% 1 07.12.2026 -
Gabriel Veron Porto Ativo 119 / 128 40% 2 06.12.2026 -
Israel Reyes CSKA Moscow Negociando 137 / 137 68% 1 01.12.2026 Aprovar
Gustavo Marques Bragantino Ativo 131 / 126 40% 1 01.12.2026 -
Ollie Watkins Al-Hilal Ativo 143 / 149 40% 5 30.11.2026 -
Ismaïla Sarr Crystal Palace Ativo 151 / 149 40% 1 29.11.2026 -
Richarlison Tottenham Ativo 138 / 139 40% 2 28.11.2026 -
Steven Bergwijn Al-Ittihad Ativo 143 / 144 40% 1 27.11.2026 -
Nordi Mukiele Sunderland Ativo 134 / 136 40% 1 27.11.2026 -
Caio Alexandre Bahia Ativo 146 / 141 40% 1 27.11.2026 -
Gabriel Jesus Barcelona Ativo 143 / 152 40% 8 25.11.2026 -
Petar Musa Adana Demirspor Ativo 130 / 133 40% 2 23.11.2026 -
Kerem Aktürkoğlu Fenerbahce Ativo 131 / 147 40% 2 20.11.2026 -
Gonzalo Fulham Ativo 132 / 142 40% 7 19.11.2026 -
Pablo Rosario Porto Ativo 131 / 132 40% 3 16.11.2026 -
Lee Hyun-Ju Arouca Ativo 130 / 127 40% 1 15.11.2026 -
Zeno Debast Sporting CP Ativo 140 / 133 40% 4 14.11.2026 -
Ángel Correa River Plate Ativo 145 / 144 40% 8 14.11.2026 -
Joshua Zirkzee Manchester United Ativo 152 / 149 40% 4 14.11.2026 -
Randal Kolo Muani Juventus Ativo 150 / 138 40% 3 14.11.2026 -
Fabrício Bruno Cruzeiro Ativo 130 / 130 40% 1 10.11.2026 -
Lorougnon Gohi Académico de Viseu Ativo 124 / 119 40% 1 06.11.2026 -
Leon Goretzka Aston Villa Ativo 167 / 149 40% 2 02.11.2026 -
Alexey Miranchuk St. Gallen Ativo 154 / 146 40% 3 30.10.2026 -
Leandro Barreiro Benfica Ativo 126 / 135 40% 3 29.10.2026 -
Leonardo Borja La Equidad Ativo 147 / 139 40% 1 24.10.2026 -
Brennan Johnson Everton Ativo 129 / 148 40% 1 24.10.2026 -
Samu Aghehowa AS Roma Ativo 135 / 157 40% 1 23.10.2026 -
Taty Castellanos West Ham United Ativo 145 / 140 40% 2 20.10.2026 -
Jean-Philippe Mateta Crystal Palace Ativo 144 / 158 40% 3 17.10.2026 -
Vangelis Pavlidis Twente Ativo 166 / 151 40% 1 17.10.2026 -
Alexander Bah Benfica Ativo 125 / 137 40% 1 15.10.2026 -
Mateo Pellegrino Fiorentina Ativo 124 / 138 40% 1 11.10.2026 -
Joaquín Piquerez Palmeiras Ativo 129 / 138 40% 1 09.10.2026 -
Thorgan Witsel KV Oostende Ativo 129 / 144 40% 1 09.10.2026 -
Luis Suárez Chelsea Ativo 158 / 150 40% 1 09.10.2026 -
Renan Lodi Atlético Mineiro Ativo 132 / 142 40% 3 08.10.2026 -
Youssef En-Nesyri Al-Ittihad Ativo 130 / 147 40% 3 05.10.2026 -
Noah Okafor Leeds United Ativo 127 / 138 40% 1 05.10.2026 -
Eddie Nketiah Crystal Palace Ativo 147 / 132 40% 1 02.10.2026 -
Guilherme Arana Fluminense Ativo 137 / 132 40% 2 28.09.2026 -
Mauro Arambarri River Plate Ativo 153 / 159 40% 2 26.09.2026 -
William Cruzeiro Ativo 126 / 139 40% 1 26.09.2026 -
Léo Ortiz Flamengo Ativo 143 / 134 40% 1 24.09.2026 -
Sergi Altimira Sporting CP Ativo 124 / 133 40% 1 20.09.2026 -
Mats Wieffer Brighton Ativo 152 / 149 40% 1 20.09.2026 -
Facundo Colidio Vasco da Gama Ativo 133 / 124 40% 1 19.09.2026 -
Tamble Monteiro Rio Ave Ativo 120 / 110 40% 1 19.09.2026 -
Thiago Brentford Ativo 147 / 148 40% 2 16.09.2026 -
Yankuba Minteh Brighton Ativo 145 / 154 40% 1 03.09.2026 -
Martinelli Fluminense Ativo 147 / 134 40% 1 03.09.2026 -
Guus Til PSV Ativo 136 / 145 40% 1 31.08.2026 -
Márcio Mendes Pandurii Ativo 132 / 126 40% 1 31.08.2026 -
Vinicinho Bragantino Ativo 131 / 128 40% 1 31.08.2026 -
Luke Shaw Manchester United Ativo 151 / 159 40% 1 25.08.2026 -
Igor Jesus Nottingham Forest Ativo 134 / 148 40% 2 19.08.2026 -
Brais Méndez Columbus Crew Ativo 151 / 155 40% 1 19.08.2026 -
João Simões Sporting CP Ativo 136 / 132 40% 1 19.08.2026 -
Breel Embolo Atlanta United FC Ativo 125 / 137 40% 1 15.08.2026 -
Lucas Veríssimo Santos Ativo 131 / 130 40% 1 15.08.2026 -
Callum Hudson-Odoi Nottingham Forest Ativo 133 / 149 40% 1 09.08.2026 -
Marcos Llorente Atlético Madrid Ativo 170 / 158 40% 1 07.08.2026 -
Antony Betis Ativo 145 / 158 40% 1 06.08.2026 -
Endrick Real Madrid Ativo 156 / 154 40% 1 05.08.2026 -
Gonçalo Guedes Real Sociedad Ativo 147 / 156 40% 1 05.08.2026 -
Andreas Christensen Barcelona Ativo 139 / 146 40% 1 04.08.2026 -
Karim Adeyemi Barcelona Ativo 161 / 159 40% 1 04.08.2026 -